Aérodrome :
LOGIN :

S'inscrire | Disclaimer

   EN    FR    IT 

 










Légende :    VFR   VFR Marginal   IFR   IFR Intensif   IFR Très Intensif
Visi : 
Plafond : 
>= 8 km
>= 3000ft
5 à 8 km
1000 à 3000 ft
1500m à 5 km
500 à 1000 ft
800 à 1500m
200 à 500 ft
< 800m
< 200 ft
Symboles :   Orages  Brouillard  Fortes neiges  Fortes précipitations  Vent > 20 kt
SIGMETs :   Divers  Orages  Givrage  Turbulence  Onde Orograph.  Cendres Volcan.







- Altitude de l'aérodrome : 72 ft
- Code IATA : UDE


EHVK - Volkel Airbase

DERNIER METAR :
  • 250921Z AUTO 31012KT 270V350 9999 FEW021 SCT025 BKN030 08/03 Q1022 BLU 29010G20KT 9999 FEW020 SCT050 BECMG 33015G30KT SCT020CB BKN025

METARs EXPIRÉS :
  • 250855Z AUTO 29010G20KT 260V330 9999 FEW018 SCT022 BKN026 08/04 Q1022 WHT 29010G20KT 9999 FEW020 SCT050 BECMG 33015G30KT SCT020CB BKN025
  • 250825Z AUTO 29011KT 250V340 9999 FEW027 BKN031 BKN037 06/03 Q1022 RERA BLU 29010G20KT 9999 FEW020 SCT050 BECMG 33015G30KT SCT020CB BKN025
  • 250820Z AUTO 29010KT 250V340 9999 -RA FEW027 SCT036 BKN041 06/04 Q1022 BLU 29010G20KT 9999 FEW020 SCT050 BECMG 33015G30KT SCT020CB BKN025
  • 250804Z AUTO 29011KT 260V340 9999 FEW013 SCT032 BKN039 05/03 Q1022 BLU 29010G20KT 9999 FEW020 SCT050 BECMG 33015G30KT SCT020CB BKN025
  • 250755Z AUTO 29012G23KT 260V350 4500 SHRA SCT018 BKN024 BKN028 06/03 Q1021 GRN 29010G20KT 9999 FEW020 SCT050 BECMG 33015G30KT SCT020CB BKN025
  • 250750Z AUTO 29013G23KT 250V350 4500 -RA FEW019 SCT025 BKN029 06/03 Q1021 GRN 29010G20KT 9999 FEW020 SCT050 BECMG 33015G30KT SCT020CB BKN025
  • 250725Z AUTO 29009KT 250V340 9999 SCT050 SCT063 07/02 Q1021 BLU 29010G20KT 9999 FEW020 SCT050 BECMG 33015G30KT SCT020 BKN025
  • 250655Z AUTO 29009KT 260V350 9999 FEW024 SCT028 06/02 Q1021 BLU
  • 250640Z AUTO 29008KT 250V330 9999 SCT020 BKN025 OVC033 06/03 Q1021 WHT
  • 250636Z AUTO 28009KT 250V320 9999 SCT022 BKN025 BKN031 06/03 Q1021 WHT
  • 250628Z AUTO 28008KT 240V320 9999 SCT023 BKN029 BKN033 06/03 Q1021 WHT

TAF TAF EHVK
Valide du 25 à 06h jusqu'au 25 à 18h UTC


250552Z 2506/2518 30012KT 9999 FEW025
PROB40
TEMPO 2506/2508 FEW018CB BKN020
BECMG 2507/2509 31017G30KT
TEMPO 2508/2516 33016G33KT SCT020CB BKN025
BECMG 2509/2511 33017G30KT
PROB40
TEMPO 2509/2514 33018G36KT 4000 SHRAGS TSRAGS FEW012 SCT018CB BKN020
BECMG 2516/2518 33015G25KT
Pas de NOTAMs connus pour ce terrain.



MET'MAP, la Météo Aéronautique d'un coup d'oeil ! - Copyright ORBIFLY Décembre 2007 - Disclaimer

ORBIFLY MET'MAP TEAM :

Programmation & Développement : Alexandra Zaïnal
Conception & Développement : Baudouin d'Aumeries
Co-Programmation & Développement : Marc-Olivier Méhu
Soutien technique & logistique : Manuel Goepfert

Contact : metmap@orbifly.com




SOURCES & CREDITS :

   NOAA